createdAt,value
2022-08-22T00:14:50.328Z,20.36
2022-08-22T00:43:47.499Z,20.22
2022-08-22T01:12:43.504Z,19.55
2022-08-22T01:41:29.764Z,19.57
2022-08-22T02:10:28.693Z,19.35
2022-08-22T02:39:21.147Z,17.85
2022-08-22T03:08:09.379Z,18.07
2022-08-22T03:36:33.299Z,17.69
2022-08-22T04:05:10.802Z,17.34
2022-08-22T04:33:40.572Z,17.61
2022-08-22T05:02:35.315Z,18.95
2022-08-22T05:31:51.154Z,22.08
2022-08-22T06:00:28.438Z,24.47
2022-08-22T06:28:36.864Z,24.36
2022-08-22T06:56:40.908Z,24.1
2022-08-22T07:25:20.110Z,25.82
2022-08-22T07:53:26.523Z,23.9
2022-08-22T08:22:22.563Z,27.38
2022-08-22T08:50:35.370Z,28.1
2022-08-22T09:19:27.215Z,28.13
2022-08-22T09:47:48.092Z,30.88
2022-08-22T10:16:04.928Z,30.43
2022-08-22T10:44:17.309Z,33.07
2022-08-22T11:12:35.545Z,30.08
2022-08-22T11:40:37.510Z,30.21
2022-08-22T12:08:56.783Z,29.87
2022-08-22T12:37:14.981Z,30.27
2022-08-22T13:06:15.365Z,29.49
2022-08-22T13:34:24.795Z,29.18
2022-08-22T14:02:51.618Z,29.19
2022-08-22T14:31:14.507Z,29.95
2022-08-22T14:59:31.881Z,29.21
2022-08-22T15:27:50.843Z,29.75
2022-08-22T15:56:15.607Z,30
2022-08-22T16:24:36.988Z,29.67
2022-08-22T16:52:43.191Z,29.43
2022-08-22T17:21:26.619Z,28.91
2022-08-22T17:50:08.228Z,28.42
2022-08-22T18:19:00.366Z,27.34
2022-08-22T18:47:53.123Z,26.72
2022-08-22T19:16:47.646Z,25.85
2022-08-22T19:45:48.115Z,25.29
2022-08-22T20:14:04.959Z,24.5
2022-08-22T20:42:50.860Z,23.92
2022-08-22T21:11:34.420Z,23.38
2022-08-22T21:39:51.783Z,22.72
2022-08-22T22:08:02.645Z,22.18
2022-08-22T22:36:50.603Z,21.74
2022-08-22T23:05:45.477Z,22.04
2022-08-22T23:34:33.067Z,21.72
